Time;durP1;ratioP1;P1;durP2;ratioP2;P2;SDS_P1;SDS_P2;PMS_P1;PMS_P2;Temp;Humidity;BMP_temperature;BMP_pressure;BME280_temperature;BME280_humidity;BME280_pressure;Samples;Min_cycle;Max_cycle;Signal;HPM_P1;HPM_P2
2022/03/21 00:00:42;;;;;;;41.53;17.37;;;;;;;3.15;41.96;101425.06;5051783;28;20642;-59
2022/03/21 00:03:10;;;;;;;19.40;12.97;;;;;;;3.23;40.40;101411.28;5051914;28;20552;-59
2022/03/21 00:05:37;;;;;;;21.87;13.30;;;;;;;3.26;40.27;101408.09;5056838;28;20191;-59
2022/03/21 00:08:06;;;;;;;17.97;12.17;;;;;;;3.45;39.42;101411.25;5071134;28;20202;-59
2022/03/21 00:10:34;;;;;;;16.20;12.03;;;;;;;3.43;39.36;101411.13;5066898;28;20195;-59
2022/03/21 00:13:02;;;;;;;19.97;11.90;;;;;;;3.35;39.79;101412.19;5066930;28;20225;-59
2022/03/21 00:15:30;;;;;;;17.97;13.50;;;;;;;3.34;40.16;101407.00;5071001;28;20191;-59
2022/03/21 00:17:57;;;;;;;15.83;11.83;;;;;;;3.26;40.39;101397.94;5074079;28;20187;-59
2022/03/21 00:20:25;;;;;;;15.43;12.47;;;;;;;3.28;40.89;101398.94;5071200;28;20191;-59
2022/03/21 00:22:53;;;;;;;19.17;13.87;;;;;;;3.23;40.86;101390.09;5073906;28;20303;-59
2022/03/21 00:25:22;;;;;;;18.87;11.53;;;;;;;3.34;40.04;101392.66;5068150;28;20196;-58
2022/03/21 00:27:49;;;;;;;16.38;13.82;;;;;;;3.43;39.70;101392.47;5072524;28;20449;-59
2022/03/21 00:30:16;;;;;;;13.60;11.67;;;;;;;3.55;39.15;101388.28;5070649;28;20569;-59
2022/03/21 00:32:44;;;;;;;15.47;11.53;;;;;;;3.52;39.67;101394.03;5068174;28;20191;-59
2022/03/21 00:35:15;;;;;;;14.57;11.63;;;;;;;3.30;39.42;101359.28;5071822;28;20204;-59
2022/03/21 00:37:43;;;;;;;20.37;11.57;;;;;;;3.40;40.08;101403.28;5069135;28;20211;-59
2022/03/21 00:40:11;;;;;;;16.97;12.00;;;;;;;3.29;40.60;101398.16;5070772;28;20672;-59
2022/03/21 00:42:40;;;;;;;15.43;11.67;;;;;;;3.34;40.85;101391.78;5073239;28;20712;-59
2022/03/21 00:45:10;;;;;;;15.47;11.93;;;;;;;3.30;41.10;101399.91;5070450;28;20193;-60
2022/03/21 00:47:38;;;;;;;15.67;11.60;;;;;;;3.30;41.15;101384.69;5073174;28;20207;-60
2022/03/21 00:50:07;;;;;;;23.03;12.43;;;;;;;3.30;41.30;101390.66;5072260;28;20561;-59
2022/03/21 00:52:39;;;;;;;13.77;11.47;;;;;;;3.32;40.79;101375.53;5071023;28;20666;-59
2022/03/21 00:55:07;;;;;;;20.20;12.70;;;;;;;3.35;40.50;101386.78;5072976;28;20198;-59
2022/03/21 00:57:34;;;;;;;14.33;10.87;;;;;;;3.36;40.67;101372.44;5070471;28;20191;-59
2022/03/21 01:00:03;;;;;;;14.37;11.10;;;;;;;3.51;39.52;101371.94;5073233;28;20222;-59
2022/03/21 01:02:30;;;;;;;18.07;11.23;;;;;;;3.52;39.37;101370.25;5069966;28;20196;-59
2022/03/21 01:04:57;;;;;;;14.80;10.60;;;;;;;3.57;39.30;101372.38;5070659;28;20195;-59
2022/03/21 01:07:24;;;;;;;17.50;13.30;;;;;;;3.59;39.21;101359.78;5061002;28;20964;-58
2022/03/21 01:09:51;;;;;;;14.63;12.07;;;;;;;3.63;39.32;101368.50;5060936;28;20192;-58
2022/03/21 01:12:18;;;;;;;17.47;11.27;;;;;;;3.60;39.25;101366.63;5069925;28;20671;-59
2022/03/21 01:14:45;;;;;;;18.47;11.63;;;;;;;3.61;39.18;101364.97;5081441;28;20176;-59
2022/03/21 01:17:13;;;;;;;20.17;11.13;;;;;;;3.60;39.85;101365.78;5076984;28;20271;-59
2022/03/21 01:19:40;;;;;;;17.53;12.20;;;;;;;3.51;39.78;101361.78;5079522;28;20181;-59
2022/03/21 01:22:07;;;;;;;15.57;12.27;;;;;;;3.49;39.77;101365.84;5077629;28;20189;-59
2022/03/21 01:24:35;;;;;;;18.03;12.03;;;;;;;3.47;39.97;101362.31;5070424;28;20194;-59
2022/03/21 01:27:02;;;;;;;16.87;11.70;;;;;;;3.40;40.56;101360.09;5070445;28;20268;-59
2022/03/21 01:29:29;;;;;;;18.87;11.87;;;;;;;3.40;40.46;101355.03;5065178;28;20209;-59
2022/03/21 01:31:56;;;;;;;17.13;12.00;;;;;;;3.46;40.53;101355.44;5070443;28;20197;-59
2022/03/21 01:34:25;;;;;;;16.00;11.60;;;;;;;3.46;40.62;101362.22;5070489;28;20214;-59
2022/03/21 01:36:52;;;;;;;17.30;11.90;;;;;;;3.44;40.62;101351.91;5070655;28;20195;-59
2022/03/21 01:39:19;;;;;;;17.43;11.87;;;;;;;3.36;40.51;101337.75;5070601;28;20199;-59
2022/03/21 01:41:46;;;;;;;17.13;11.33;;;;;;;3.34;40.02;101348.59;5070483;28;20191;-59
2022/03/21 01:44:13;;;;;;;16.50;11.70;;;;;;;3.31;40.18;101336.53;5070286;28;20202;-59
2022/03/21 01:46:42;;;;;;;16.40;10.67;;;;;;;3.16;40.01;101319.28;5070114;28;20693;-59
2022/03/21 01:49:10;;;;;;;14.50;10.87;;;;;;;3.33;40.41;101344.25;5070222;28;20187;-59
2022/03/21 01:51:39;;;;;;;17.27;10.37;;;;;;;3.35;40.04;101338.53;5070393;28;20196;-59
2022/03/21 01:56:52;;;;;;;13.00;10.23;;;;;;;3.44;39.71;101340.88;5070268;28;20242;-59
2022/03/21 01:59:20;;;;;;;15.30;10.90;;;;;;;3.45;40.15;101341.00;5069923;28;20318;-59
2022/03/21 02:01:49;;;;;;;13.83;11.03;;;;;;;3.48;39.74;101330.16;5070329;28;20274;-59
2022/03/21 02:04:16;;;;;;;14.47;10.90;;;;;;;3.43;39.84;101341.66;5070189;28;20293;-59
2022/03/21 02:06:45;;;;;;;15.27;11.37;;;;;;;3.47;39.82;101346.16;5070032;28;20216;-59
2022/03/21 02:09:12;;;;;;;13.23;10.60;;;;;;;3.53;39.15;101344.09;5070050;28;20199;-59
2022/03/21 02:11:39;;;;;;;15.77;10.80;;;;;;;3.56;39.13;101340.13;5070082;28;20195;-59
2022/03/21 02:14:08;;;;;;;18.07;11.63;;;;;;;3.56;39.99;101335.03;5070092;28;20651;-59
2022/03/21 02:16:37;;;;;;;15.07;11.53;;;;;;;3.54;40.45;101345.88;5069984;28;20282;-59
2022/03/21 02:19:07;;;;;;;17.20;12.90;;;;;;;3.53;40.16;101351.72;5070177;28;20210;-59
2022/03/21 02:21:45;;;;;;;17.70;12.20;;;;;;;3.50;40.78;101354.91;5070199;28;20280;-59
2022/03/21 02:24:22;;;;;;;16.27;11.60;;;;;;;3.47;40.99;101351.25;5069973;28;20191;-59
2022/03/21 02:26:53;;;;;;;18.07;12.10;;;;;;;3.49;40.70;101344.63;5070045;28;20218;-59
2022/03/21 02:29:22;;;;;;;14.60;11.53;;;;;;;3.55;40.04;101355.25;5069809;28;20674;-59
2022/03/21 02:31:50;;;;;;;17.87;11.90;;;;;;;3.57;39.70;101344.41;5071101;28;20195;-59
2022/03/21 02:34:19;;;;;;;20.63;11.63;;;;;;;3.54;39.29;101345.88;5073608;28;20758;-59
2022/03/21 02:36:46;;;;;;;14.27;10.07;;;;;;;3.57;38.89;101346.94;5073506;28;20184;-59
2022/03/21 02:39:14;;;;;;;15.60;11.70;;;;;;;3.57;38.73;101351.19;5073783;28;20218;-59
2022/03/21 02:41:41;;;;;;;14.50;11.07;;;;;;;3.38;39.07;101315.00;5073471;28;20660;-59
2022/03/21 02:44:10;;;;;;;15.47;11.70;;;;;;;3.50;39.36;101349.84;5073504;28;20195;-59
2022/03/21 02:46:37;;;;;;;25.97;12.77;;;;;;;3.44;40.02;101329.03;5073339;28;20226;-59
2022/03/21 02:49:04;;;;;;;17.50;12.10;;;;;;;3.47;40.46;101359.75;5073268;28;20192;-59
2022/03/21 02:51:33;;;;;;;16.20;11.97;;;;;;;3.45;40.33;101358.78;5073144;28;20199;-59
2022/03/21 02:54:00;;;;;;;13.53;11.50;;;;;;;3.43;40.26;101362.84;5073490;28;20199;-59
2022/03/21 02:56:27;;;;;;;18.37;12.93;;;;;;;3.45;41.06;101355.34;5073227;28;20203;-59
2022/03/21 02:58:54;;;;;;;17.53;12.17;;;;;;;3.42;41.08;101355.13;5073019;28;20235;-59
2022/03/21 03:01:23;;;;;;;21.30;14.45;;;;;;;3.47;41.05;101354.69;5072242;28;20540;-59
2022/03/21 03:03:50;;;;;;;17.70;13.07;;;;;;;3.56;40.66;101363.00;5073266;28;20197;-59
2022/03/21 03:06:17;;;;;;;17.00;12.57;;;;;;;3.55;41.20;101356.13;5072990;28;20196;-59
2022/03/21 03:08:45;;;;;;;14.93;11.70;;;;;;;3.57;40.68;101352.03;5073001;28;20192;-59
2022/03/21 03:11:12;;;;;;;20.17;15.67;;;;;;;3.71;40.29;101354.72;5071836;28;20449;-59
2022/03/21 03:13:39;;;;;;;18.53;13.80;;;;;;;3.78;39.52;101351.84;5073105;28;20441;-59
2022/03/21 03:16:06;;;;;;;17.67;12.50;;;;;;;3.75;39.50;101347.44;5072806;28;20221;-59
2022/03/21 03:18:34;;;;;;;18.17;13.43;;;;;;;3.74;39.85;101345.66;5072435;28;20767;-59
2022/03/21 03:21:01;;;;;;;18.60;12.80;;;;;;;3.58;40.19;101352.94;5073048;28;20928;-59
2022/03/21 03:23:32;;;;;;;18.37;13.43;;;;;;;3.57;40.68;101352.03;5072974;28;20199;-59
2022/03/21 03:26:00;;;;;;;19.13;12.93;;;;;;;3.61;39.89;101353.16;5067606;28;20764;-59
2022/03/21 03:28:28;;;;;;;21.80;12.83;;;;;;;3.59;40.31;101347.09;5072657;28;20306;-57
2022/03/21 03:30:56;;;;;;;17.80;12.93;;;;;;;3.58;40.42;101345.31;5072588;28;20196;-58
2022/03/21 03:33:24;;;;;;;15.70;13.27;;;;;;;3.57;40.16;101346.09;5072537;28;20291;-58
2022/03/21 03:35:52;;;;;;;22.10;13.47;;;;;;;3.60;40.49;101343.75;5072375;28;20695;-58
2022/03/21 03:38:20;;;;;;;21.10;13.30;;;;;;;3.53;40.56;101344.97;5072731;28;20199;-58
2022/03/21 03:40:47;;;;;;;19.13;12.70;;;;;;;3.49;41.24;101342.06;5072396;28;20202;-58
2022/03/21 03:43:15;;;;;;;18.43;13.57;;;;;;;3.25;41.16;101307.25;5072305;28;20278;-58
2022/03/21 03:45:43;;;;;;;18.20;13.37;;;;;;;3.36;41.50;101340.31;5071593;28;20280;-58
2022/03/21 03:48:10;;;;;;;20.37;14.30;;;;;;;3.34;42.32;101330.81;5072206;28;20225;-58
2022/03/21 03:50:38;;;;;;;22.67;15.87;;;;;;;3.17;42.71;101328.66;5072281;28;20679;-58
2022/03/21 03:53:06;;;;;;;25.40;15.10;;;;;;;3.15;43.37;101332.75;5072287;28;20191;-58
2022/03/21 03:55:33;;;;;;;23.00;14.83;;;;;;;3.11;43.72;101329.09;5072100;28;20192;-58
2022/03/21 03:58:00;;;;;;;26.50;16.80;;;;;;;3.04;43.46;101337.03;5071945;28;20235;-58
2022/03/21 04:00:27;;;;;;;24.53;16.50;;;;;;;2.99;43.23;101329.03;5071924;28;20235;-58
2022/03/21 04:05:39;;;;;;;26.20;17.60;;;;;;;2.91;43.27;101331.81;5071962;28;20210;-59
2022/03/21 04:08:09;;;;;;;21.77;16.53;;;;;;;2.86;43.55;101326.34;5071723;28;20219;-59
2022/03/21 04:10:36;;;;;;;22.77;15.83;;;;;;;2.82;42.96;101331.09;5071762;28;20200;-58
2022/03/21 04:13:03;;;;;;;24.07;15.80;;;;;;;2.72;43.03;101324.41;5072073;28;20293;-59
2022/03/21 04:15:30;;;;;;;25.30;16.73;;;;;;;2.66;43.01;101318.91;5071761;28;20674;-59
2022/03/21 04:17:59;;;;;;;24.70;17.03;;;;;;;2.62;43.73;101316.00;5071718;28;20196;-59
2022/03/21 04:20:26;;;;;;;20.93;14.70;;;;;;;2.68;43.09;101314.81;5071634;28;20205;-59
2022/03/21 04:22:53;;;;;;;22.88;16.10;;;;;;;2.64;43.51;101322.06;5071257;28;20438;-60
2022/03/21 04:25:22;;;;;;;28.60;17.73;;;;;;;2.64;44.38;101322.94;5071557;28;20748;-59
2022/03/21 04:27:48;;;;;;;28.80;17.33;;;;;;;2.53;44.18;101316.16;5071611;28;20230;-58
2022/03/21 04:30:16;;;;;;;25.97;17.13;;;;;;;2.32;44.73;101279.00;5071402;28;20232;-58
2022/03/21 04:32:44;;;;;;;25.48;18.40;;;;;;;2.55;44.30;101314.66;5070846;28;20426;-58
2022/03/21 04:35:11;;;;;;;25.83;16.53;;;;;;;2.54;44.31;101304.38;5071144;28;20195;-58
2022/03/21 04:37:38;;;;;;;22.87;16.83;;;;;;;2.58;44.16;101317.44;5071385;28;20188;-58
2022/03/21 04:40:07;;;;;;;23.07;15.40;;;;;;;2.59;44.47;101315.75;5071122;28;20196;-58
2022/03/21 04:42:35;;;;;;;20.47;15.33;;;;;;;2.59;44.20;101310.69;5071240;28;20982;-58
2022/03/21 04:45:02;;;;;;;25.43;14.67;;;;;;;2.61;43.85;101317.63;5071325;28;20299;-60
2022/03/21 04:47:29;;;;;;;21.17;14.97;;;;;;;2.66;43.52;101312.94;5071049;28;20223;-59
2022/03/21 04:49:56;;;;;;;20.67;14.20;;;;;;;2.76;43.07;101316.28;5071102;28;20693;-59
2022/03/21 04:52:23;;;;;;;20.83;14.97;;;;;;;2.62;43.26;101300.78;5071337;28;20195;-59
2022/03/21 04:54:50;;;;;;;21.17;15.00;;;;;;;2.71;43.83;101321.78;5070828;28;20297;-59
2022/03/21 04:57:21;;;;;;;22.93;15.57;;;;;;;2.76;44.17;101325.53;5071272;28;20191;-59
2022/03/21 04:59:49;;;;;;;20.10;14.77;;;;;;;2.71;43.99;101327.75;5070720;28;20274;-59
2022/03/21 05:02:16;;;;;;;26.37;14.57;;;;;;;2.72;43.88;101331.19;5070521;28;20192;-59
2022/03/21 05:04:43;;;;;;;26.67;15.00;;;;;;;2.65;44.51;101324.72;5070613;28;20202;-59
2022/03/21 05:07:14;;;;;;;25.10;15.80;;;;;;;2.67;44.67;101335.88;5070511;28;20662;-59
2022/03/21 05:09:41;;;;;;;24.47;15.53;;;;;;;2.69;44.86;101329.25;5070662;28;20241;-58
2022/03/21 05:12:09;;;;;;;21.97;15.20;;;;;;;2.77;44.49;101329.88;5070824;28;20214;-58
2022/03/21 05:14:37;;;;;;;20.50;14.60;;;;;;;2.82;44.17;101333.63;5070289;28;20195;-59
2022/03/21 05:17:06;;;;;;;26.27;15.60;;;;;;;2.88;44.60;101334.97;5070405;28;20199;-59
2022/03/21 05:19:35;;;;;;;21.50;14.20;;;;;;;2.87;44.09;101320.53;5070715;28;20198;-59
2022/03/21 05:22:02;;;;;;;21.80;14.57;;;;;;;3.01;43.82;101335.91;5070590;28;20570;-59
2022/03/21 05:32:43;;;;;;;26.43;16.97;;;;;;;3.10;43.85;101360.34;5070266;28;20233;-59
2022/03/21 05:37:54;;;;;;;29.80;17.77;;;;;;;3.26;43.58;101357.28;5070071;28;20202;-59
2022/03/21 05:40:34;;;;;;;21.83;16.47;;;;;;;3.40;43.23;101357.56;5070088;28;20666;-59
2022/03/21 05:43:01;;;;;;;23.23;16.13;;;;;;;3.51;43.18;101363.44;5069991;28;20187;-59
2022/03/21 05:45:28;;;;;;;21.07;15.67;;;;;;;3.62;42.94;101372.72;5070149;28;20200;-59
2022/03/21 05:50:41;;;;;;;22.37;14.87;;;;;;;3.72;42.52;101372.63;5069760;28;20201;-60
2022/03/21 05:53:09;;;;;;;27.10;14.83;;;;;;;3.82;42.23;101380.13;5070329;28;20206;-59
2022/03/21 05:55:36;;;;;;;24.43;15.70;;;;;;;3.87;41.56;101380.50;5069765;28;20283;-59
2022/03/21 05:58:04;;;;;;;21.77;15.67;;;;;;;3.95;41.63;101377.72;5069887;28;20627;-58
2022/03/21 06:00:31;;;;;;;22.53;16.70;;;;;;;4.07;41.58;101378.59;5069730;28;20613;-58
2022/03/21 06:03:00;;;;;;;27.03;16.67;;;;;;;4.12;41.50;101376.41;5069792;28;20192;-59
2022/03/21 06:05:28;;;;;;;21.13;15.47;;;;;;;4.14;41.07;101373.19;5055707;28;20712;-59
2022/03/21 06:07:54;;;;;;;23.40;15.27;;;;;;;4.18;40.76;101387.88;5053959;28;20694;-60
2022/03/21 06:10:21;;;;;;;28.60;15.57;;;;;;;4.19;40.34;101381.13;5068652;28;20196;-60
2022/03/21 06:12:50;;;;;;;23.23;16.23;;;;;;;4.24;40.71;101376.38;5054659;28;20204;-59
2022/03/21 06:15:17;;;;;;;22.50;16.53;;;;;;;4.15;40.89;101348.59;5072074;28;20215;-58
2022/03/21 06:17:45;;;;;;;24.33;16.83;;;;;;;4.24;40.48;101348.38;5073541;28;20213;-60
2022/03/21 06:20:15;;;;;;;25.17;16.73;;;;;;;4.48;40.32;101384.06;5073365;28;20750;-60
2022/03/21 06:22:43;;;;;;;24.07;16.83;;;;;;;4.45;39.78;101388.94;5073083;28;20200;-59
2022/03/21 06:25:12;;;;;;;23.77;16.93;;;;;;;4.39;40.26;101375.81;5073373;28;20283;-59
2022/03/21 06:27:40;;;;;;;26.23;18.37;;;;;;;4.55;40.21;101393.03;5063968;28;20447;-59
2022/03/21 06:30:09;;;;;;;25.83;17.33;;;;;;;4.58;39.75;101385.63;5053112;28;20503;-59
2022/03/21 06:32:37;;;;;;;22.20;15.70;;;;;;;4.60;39.56;101387.50;5074699;28;20655;-59
2022/03/21 06:35:09;;;;;;;22.67;15.53;;;;;;;4.67;38.77;101386.25;5081102;28;20590;-59
2022/03/21 06:37:38;;;;;;;23.98;17.30;;;;;;;4.68;39.05;101388.91;5073225;28;20532;-59
2022/03/21 06:40:06;;;;;;;21.80;15.87;;;;;;;4.79;38.45;101382.00;5052924;28;20203;-58
2022/03/21 06:42:33;;;;;;;21.23;15.53;;;;;;;4.65;38.22;101341.97;5053048;28;20675;-59
2022/03/21 06:44:59;;;;;;;19.63;15.30;;;;;;;4.96;37.47;101381.50;5052957;28;20288;-59
2022/03/21 06:47:27;;;;;;;20.73;14.37;;;;;;;5.03;37.36;101378.59;5052685;28;20282;-59
2022/03/21 06:49:53;;;;;;;17.87;14.53;;;;;;;5.12;37.90;101378.34;5052776;28;20194;-59
2022/03/21 06:52:20;;;;;;;16.53;13.63;;;;;;;5.25;37.45;101376.72;5052844;28;20198;-59
2022/03/21 06:54:49;;;;;;;20.57;14.53;;;;;;;5.30;37.28;101380.44;5052907;28;20194;-59
2022/03/21 06:57:17;;;;;;;19.47;14.60;;;;;;;5.14;36.97;101336.88;5068361;28;20562;-60
2022/03/21 06:59:45;;;;;;;21.53;13.53;;;;;;;5.42;36.47;101375.28;5051593;28;20225;-59
2022/03/21 07:02:12;;;;;;;18.47;12.93;;;;;;;5.46;36.30;101368.75;5051536;28;20193;-59
2022/03/21 07:04:39;;;;;;;23.07;14.63;;;;;;;5.59;36.68;101374.75;5051482;28;20619;-59
2022/03/21 07:07:06;;;;;;;19.60;14.47;;;;;;;5.74;36.12;101367.22;5051423;28;20197;-59
2022/03/21 07:09:33;;;;;;;17.03;13.97;;;;;;;5.80;35.73;101360.84;5071430;28;20238;-59
2022/03/21 07:12:02;;;;;;;21.93;13.23;;;;;;;5.97;36.02;101363.63;5071450;28;20205;-59
2022/03/21 07:14:28;;;;;;;20.30;14.63;;;;;;;6.07;35.16;101366.84;5070983;28;20198;-59
2022/03/21 07:16:55;;;;;;;22.88;17.13;;;;;;;6.23;35.24;101368.75;5075608;28;20453;-60
2022/03/21 07:19:22;;;;;;;23.27;14.97;;;;;;;6.33;34.28;101371.06;5081056;28;20387;-59
2022/03/21 07:21:49;;;;;;;25.20;15.20;;;;;;;6.46;34.13;101364.28;5080249;28;20186;-59
2022/03/21 07:24:16;;;;;;;18.50;12.73;;;;;;;6.58;33.67;101358.16;5082219;28;20189;-60
2022/03/21 07:26:43;;;;;;;18.70;14.47;;;;;;;6.71;33.89;101363.22;5081010;28;20913;-59
2022/03/21 07:29:12;;;;;;;20.80;14.13;;;;;;;6.70;33.53;101354.72;5080196;28;20201;-60
2022/03/21 07:31:39;;;;;;;19.80;14.80;;;;;;;6.73;32.94;101343.78;5076160;28;20202;-60
2022/03/21 07:34:07;;;;;;;20.27;15.77;;;;;;;6.91;32.38;101353.44;5071014;28;20242;-60
2022/03/21 07:36:34;;;;;;;23.10;15.60;;;;;;;6.97;32.24;101351.28;5071205;28;20210;-60
2022/03/21 07:39:02;;;;;;;18.63;14.10;;;;;;;7.09;32.29;101351.97;5070755;28;20752;-60
2022/03/21 07:41:28;;;;;;;20.53;13.70;;;;;;;7.17;31.61;101349.88;5071043;28;20332;-60
2022/03/21 07:43:57;;;;;;;19.83;13.90;;;;;;;7.01;31.77;101350.66;5076235;28;20683;-60
2022/03/21 07:49:11;;;;;;;19.00;13.67;;;;;;;7.11;32.29;101340.16;5076907;28;20363;-59
2022/03/21 07:51:39;;;;;;;16.80;13.90;;;;;;;7.23;31.29;101344.25;5079821;28;20566;-59
2022/03/21 07:54:06;;;;;;;21.20;14.10;;;;;;;7.35;31.70;101348.41;5055544;28;20301;-59
2022/03/21 07:56:32;;;;;;;19.43;13.87;;;;;;;7.23;31.51;101340.00;5055211;28;20288;-59
2022/03/21 07:59:01;;;;;;;18.57;13.83;;;;;;;7.31;31.99;101333.69;5007482;28;1241776;-59
2022/03/21 08:01:30;;;;;;;17.87;13.53;;;;;;;7.41;31.58;101335.09;5057985;28;20276;-60
2022/03/21 08:04:00;;;;;;;19.23;14.40;;;;;;;7.36;31.91;101336.53;5071320;28;20197;-60
2022/03/21 08:06:28;;;;;;;18.07;13.83;;;;;;;7.39;31.44;101335.00;5075998;28;20577;-60
2022/03/21 08:08:55;;;;;;;15.33;12.67;;;;;;;7.28;31.01;101333.50;5081600;28;20205;-60
2022/03/21 08:11:23;;;;;;;18.17;13.87;;;;;;;7.40;31.32;101329.09;5079999;28;20209;-59
2022/03/21 08:13:50;;;;;;;20.70;14.73;;;;;;;7.60;30.68;101332.81;5081305;28;20678;-60
2022/03/21 08:16:20;;;;;;;19.93;15.83;;;;;;;7.77;31.01;101326.09;5071227;28;20201;-59
2022/03/21 08:18:52;;;;;;;24.37;15.77;;;;;;;7.82;31.53;101319.56;5071297;28;20662;-59
2022/03/21 08:21:20;;;;;;;21.17;14.10;;;;;;;7.91;30.05;101325.19;5071714;28;20242;-59
2022/03/21 08:23:47;;;;;;;22.40;14.20;;;;;;;8.02;30.46;101329.25;5071092;28;20256;-60
2022/03/21 08:26:16;;;;;;;19.87;14.17;;;;;;;8.11;29.89;101329.72;5070951;28;20285;-59
2022/03/21 08:28:45;;;;;;;19.23;14.80;;;;;;;8.28;29.64;101316.22;5070249;28;20235;-59
2022/03/21 08:31:13;;;;;;;18.25;13.93;;;;;;;8.35;29.51;101320.84;5070645;28;20549;-59
2022/03/21 08:33:40;;;;;;;18.67;12.53;;;;;;;8.35;29.09;101320.84;5071309;28;20192;-59
2022/03/21 08:36:08;;;;;;;18.37;12.87;;;;;;;8.38;29.35;101315.91;5070506;28;20191;-60
2022/03/21 08:38:35;;;;;;;21.00;13.43;;;;;;;8.38;29.42;101310.78;5070717;28;20194;-59
2022/03/21 08:41:02;;;;;;;19.20;13.57;;;;;;;8.38;29.81;101313.34;5070825;28;20199;-59
2022/03/21 08:43:29;;;;;;;19.70;13.83;;;;;;;8.40;29.54;101319.44;5070756;28;20561;-59
2022/03/21 08:45:56;;;;;;;16.60;13.03;;;;;;;8.50;29.33;101310.56;5070679;28;20241;-60
2022/03/21 08:49:23;;;;;;;14.33;11.70;;;;;;;8.10;29.70;101313.47;5070626;28;20598;-59
2022/03/21 08:51:13;;;;;;;13.10;11.57;;;;;;;8.06;29.16;101314.13;5070380;28;20195;-60
2022/03/21 08:53:40;;;;;;;16.20;12.50;;;;;;;7.85;29.32;101306.94;5070362;28;20277;-59
2022/03/21 08:56:07;;;;;;;14.40;11.50;;;;;;;7.78;29.74;101308.25;5070089;28;20743;-61
2022/03/21 08:58:34;;;;;;;14.53;11.27;;;;;;;7.82;29.79;101310.22;5069255;28;20203;-60
2022/03/21 09:01:01;;;;;;;15.37;10.97;;;;;;;7.94;29.30;101315.13;5070268;28;20220;-60
2022/03/21 09:03:27;;;;;;;18.27;12.07;;;;;;;8.08;29.90;101309.06;5070526;28;20223;-60
2022/03/21 09:05:54;;;;;;;14.83;11.47;;;;;;;8.29;29.86;101310.31;5070131;28;20198;-61
2022/03/21 09:08:23;;;;;;;17.13;12.27;;;;;;;8.48;29.15;101302.81;5070078;28;20298;-61
2022/03/21 09:10:50;;;;;;;18.87;11.20;;;;;;;8.63;28.65;101301.03;5070413;28;20274;-61
2022/03/21 09:13:17;;;;;;;16.47;12.20;;;;;;;8.65;28.52;101294.31;5070302;28;20300;-60
2022/03/21 09:15:44;;;;;;;20.67;11.60;;;;;;;8.42;28.93;101312.72;5069160;28;20194;-59
2022/03/21 09:18:11;;;;;;;15.90;11.83;;;;;;;8.34;28.85;101307.97;5068976;28;20201;-59
2022/03/21 09:20:38;;;;;;;15.97;12.03;;;;;;;8.39;29.00;101302.31;5069411;28;20233;-59
2022/03/21 09:23:06;;;;;;;19.07;12.10;;;;;;;8.42;28.70;101306.72;5067728;28;20191;-59
2022/03/21 09:25:34;;;;;;;18.23;12.93;;;;;;;8.36;28.91;101297.00;5066562;28;20300;-59
2022/03/21 09:28:01;;;;;;;18.10;13.43;;;;;;;8.46;29.23;101281.31;5065969;28;20199;-60
2022/03/21 09:30:28;;;;;;;15.87;11.90;;;;;;;8.69;28.83;101292.78;5066030;28;20212;-60
2022/03/21 09:32:55;;;;;;;20.10;12.20;;;;;;;8.70;28.69;101294.56;5066033;28;20195;-60
2022/03/21 09:35:22;;;;;;;19.47;12.03;;;;;;;8.51;28.93;101287.59;5065625;28;20712;-60
2022/03/21 09:37:49;;;;;;;13.87;11.80;;;;;;;8.50;28.92;101283.25;5067412;28;20200;-59
2022/03/21 09:40:19;;;;;;;17.67;13.07;;;;;;;8.76;28.93;101280.38;5068030;28;20430;-59
2022/03/21 09:42:47;;;;;;;15.47;11.70;;;;;;;8.71;28.89;101284.38;5069940;28;20199;-59
2022/03/21 09:45:15;;;;;;;13.33;10.50;;;;;;;8.73;28.00;101271.66;5069816;28;20217;-60
2022/03/21 09:50:33;;;;;;;14.77;11.90;;;;;;;8.73;28.54;101275.13;5069588;28;20715;-60
2022/03/21 09:53:01;;;;;;;20.70;14.30;;;;;;;8.92;28.93;101268.38;5070024;28;20609;-61
2022/03/21 09:55:28;;;;;;;17.83;14.10;;;;;;;9.17;28.79;101263.66;5069872;28;20717;-60
2022/03/21 09:57:57;;;;;;;16.60;12.13;;;;;;;9.42;28.33;101266.66;5069865;28;20195;-61
2022/03/21 10:00:25;;;;;;;13.37;11.57;;;;;;;9.56;28.63;101257.91;5069079;28;20318;-59
2022/03/21 10:02:52;;;;;;;15.40;12.67;;;;;;;9.42;27.78;101252.09;5069557;28;20203;-60
2022/03/21 10:05:36;;;;;;;16.87;11.27;;;;;;;9.28;27.71;101257.38;5069501;28;20192;-60
2022/03/21 10:08:14;;;;;;;13.47;11.20;;;;;;;9.17;27.97;101248.28;5069541;28;20195;-60
2022/03/21 10:10:42;;;;;;;15.87;11.43;;;;;;;8.86;28.22;101246.75;5069262;28;20219;-60
2022/03/21 10:13:11;;;;;;;18.47;12.47;;;;;;;8.91;28.62;101249.53;5068989;28;20744;-60
2022/03/21 10:15:38;;;;;;;18.60;11.33;;;;;;;8.94;28.65;101239.44;5068945;28;20191;-60
2022/03/21 10:18:06;;;;;;;17.70;13.17;;;;;;;9.25;28.76;101250.44;5069216;28;20205;-60
2022/03/21 10:20:33;;;;;;;15.47;11.70;;;;;;;9.50;27.63;101244.81;5069283;28;20191;-60
2022/03/21 10:23:15;;;;;;;16.07;11.13;;;;;;;9.55;27.85;101240.78;5069105;28;20561;-60
2022/03/21 10:25:42;;;;;;;15.17;11.60;;;;;;;9.42;27.41;101182.84;5069299;28;20192;-61
2022/03/21 10:28:11;;;;;;;16.87;11.67;;;;;;;9.93;27.10;101232.31;5068930;28;20191;-60
2022/03/21 10:30:44;;;;;;;14.10;10.77;;;;;;;9.83;26.99;101230.97;5068835;28;20183;-60
2022/03/21 10:33:11;;;;;;;13.93;11.10;;;;;;;9.83;27.44;101240.41;5069068;28;20270;-60
2022/03/21 10:35:46;;;;;;;15.00;11.07;;;;;;;9.66;27.54;101231.91;5069067;28;20317;-60
2022/03/21 10:38:13;;;;;;;12.73;10.07;;;;;;;9.41;27.54;101226.41;5069233;28;20187;-59
2022/03/21 10:40:45;;;;;;;14.83;12.20;;;;;;;9.59;27.85;101214.44;5069557;28;20277;-60
2022/03/21 10:43:15;;;;;;;13.60;11.20;;;;;;;9.82;27.10;101221.53;5069308;28;20583;-60
2022/03/21 10:45:45;;;;;;;17.97;11.80;;;;;;;10.02;27.23;101213.09;5068977;28;20570;-61
2022/03/21 10:48:13;;;;;;;13.67;11.03;;;;;;;9.81;27.20;101199.22;5069022;28;20237;-60
2022/03/21 10:50:42;;;;;;;12.30;11.00;;;;;;;10.03;27.16;101206.22;5069050;28;20241;-60
2022/03/21 10:53:13;;;;;;;14.53;10.80;;;;;;;10.16;26.66;101200.91;5070826;28;20651;-60
2022/03/21 10:55:41;;;;;;;13.03;10.53;;;;;;;10.23;26.86;101192.66;5072983;28;20200;-60
2022/03/21 10:58:10;;;;;;;14.93;10.37;;;;;;;9.99;26.82;101191.50;5072810;28;20260;-59
2022/03/21 11:00:39;;;;;;;12.77;10.43;;;;;;;9.97;26.80;101194.00;5071268;28;20227;-60
2022/03/21 11:03:09;;;;;;;10.73;9.30;;;;;;;9.91;27.04;101186.03;5066198;28;20191;-60
2022/03/21 11:05:38;;;;;;;14.50;10.23;;;;;;;10.09;26.49;101191.09;5056836;28;20204;-60
2022/03/21 11:08:06;;;;;;;13.13;10.83;;;;;;;9.95;26.84;101185.34;5057399;28;20198;-60
2022/03/21 11:10:33;;;;;;;12.27;9.97;;;;;;;9.91;27.15;101178.34;5066847;28;20222;-60
2022/03/21 11:13:02;;;;;;;17.33;12.82;;;;;;;10.14;27.53;101181.06;5072233;28;20529;-61
2022/03/21 11:15:31;;;;;;;15.53;10.93;;;;;;;10.37;26.99;101167.56;5072937;28;20202;-60
2022/03/21 11:18:00;;;;;;;14.10;11.70;;;;;;;10.58;26.49;101171.03;5072725;28;20641;-61
2022/03/21 11:20:29;;;;;;;12.90;11.00;;;;;;;10.66;26.51;101159.41;5073240;28;20191;-60
2022/03/21 11:22:56;;;;;;;15.03;10.70;;;;;;;10.33;26.26;101165.69;5054866;28;20586;-60
2022/03/21 11:25:26;;;;;;;15.97;10.93;;;;;;;10.28;26.86;101162.00;5052323;28;20323;-59
2022/03/21 11:28:30;;;;;;;12.80;9.97;;;;;;;10.50;26.38;101154.41;5052176;28;20211;-60
2022/03/21 11:31:27;;;;;;;18.77;11.93;;;;;;;10.73;26.19;101152.84;5052188;28;20302;-61
2022/03/21 11:34:08;;;;;;;14.27;9.33;;;;;;;10.72;26.30;101139.09;5051357;28;20196;-60
2022/03/21 11:36:50;;;;;;;16.07;11.23;;;;;;;10.80;26.26;101127.44;5051842;28;20286;-60
2022/03/21 11:39:17;;;;;;;19.90;13.93;;;;;;;10.91;26.24;101131.31;5051926;28;20192;-61
2022/03/21 11:41:57;;;;;;;15.73;11.27;;;;;;;11.23;25.24;101138.63;5051859;28;20192;-61
2022/03/21 11:44:24;;;;;;;17.40;12.20;;;;;;;11.18;25.45;101126.41;5051805;28;20199;-60
2022/03/21 11:46:51;;;;;;;14.63;10.33;;;;;;;11.15;25.62;101124.59;5051590;28;20196;-60